Time;durP1;ratioP1;P1;durP2;ratioP2;P2;SDS_P1;SDS_P2;PMS_P1;PMS_P2;Temp;Humidity;BMP_temperature;BMP_pressure;BME280_temperature;BME280_humidity;BME280_pressure;Samples;Min_cycle;Max_cycle;Signal;HPM_P1;HPM_P2
2024/01/27 00:00:42;;;;;;;5.80;1.70;;;6.50;99.90;;;;;;5014857;28;20026;-73
2024/01/27 00:03:08;;;;;;;10.52;2.58;;;6.50;99.90;;;;;;5001625;28;20046;-73
2024/01/27 00:05:33;;;;;;;9.82;2.40;;;6.50;99.90;;;;;;5000424;28;20105;-73
2024/01/27 00:07:59;;;;;;;11.88;2.35;;;6.40;99.90;;;;;;5015246;28;20026;-73
2024/01/27 00:10:24;;;;;;;7.80;1.90;;;6.30;99.90;;;;;;5014672;28;20058;-73
2024/01/27 00:12:50;;;;;;;12.57;2.10;;;6.30;99.90;;;;;;5014981;28;20037;-73
2024/01/27 00:15:15;;;;;;;5.10;1.55;;;6.30;99.90;;;;;;5014673;28;20026;-72
2024/01/27 00:17:41;;;;;;;7.38;2.22;;;6.20;99.90;;;;;;5014697;28;20030;-73
2024/01/27 00:20:07;;;;;;;12.27;2.28;;;6.10;99.90;;;;;;5014694;28;20026;-73
2024/01/27 00:22:32;;;;;;;13.13;2.03;;;6.00;99.90;;;;;;5015581;28;20030;-72
2024/01/27 00:24:58;;;;;;;8.43;1.77;;;6.00;99.90;;;;;;5015406;28;20026;-73
2024/01/27 00:27:23;;;;;;;7.22;1.90;;;5.90;99.90;;;;;;5014550;28;20152;-74
2024/01/27 00:29:49;;;;;;;7.80;2.17;;;5.80;99.90;;;;;;4998100;28;20057;-73
2024/01/27 00:32:14;;;;;;;6.10;1.98;;;5.80;99.90;;;;;;5015006;28;20057;-73
2024/01/27 00:34:40;;;;;;;6.70;1.98;;;5.70;99.90;;;;;;5014231;28;20034;-72
2024/01/27 00:37:05;;;;;;;16.95;3.13;;;5.70;99.90;;;;;;5014153;28;20069;-73
2024/01/27 00:39:34;;;;;;;8.65;2.92;;;5.60;99.90;;;;;;4997737;28;20097;-73
2024/01/27 00:41:59;;;;;;;10.98;2.85;;;5.50;99.90;;;;;;4998248;28;20023;-73
2024/01/27 00:44:25;;;;;;;11.85;2.40;;;5.50;99.90;;;;;;4997661;28;20030;-73
2024/01/27 00:46:57;;;;;;;6.00;2.00;;;5.50;99.90;;;;;;5015580;28;20026;-73
2024/01/27 00:49:22;;;;;;;;;;;5.40;99.90;;;;;;5002473;28;20041;-72
2024/01/27 00:51:48;;;;;;;12.13;3.13;;;5.40;99.90;;;;;;4997859;28;19914;-72
2024/01/27 00:54:13;;;;;;;16.00;2.28;;;5.30;99.90;;;;;;5014074;28;20019;-73
2024/01/27 00:56:39;;;;;;;6.28;1.77;;;5.30;99.90;;;;;;5013999;28;20022;-72
2024/01/27 00:59:05;;;;;;;6.53;2.80;;;5.30;99.90;;;;;;4998259;28;20024;-73
2024/01/27 01:01:30;;;;;;;6.38;2.47;;;5.30;99.90;;;;;;4998487;28;20026;-73
2024/01/27 01:03:56;;;;;;;4.82;2.13;;;5.30;99.90;;;;;;5015691;28;20027;-73
2024/01/27 01:06:22;;;;;;;8.80;2.08;;;5.30;99.90;;;;;;5013985;28;20019;-73
2024/01/27 01:08:48;;;;;;;16.35;2.20;;;5.20;99.90;;;;;;4998374;28;20034;-73
2024/01/27 01:11:14;;;;;;;8.90;3.03;;;5.20;99.90;;;;;;5013881;28;20026;-73
2024/01/27 01:13:40;;;;;;;10.93;2.03;;;5.20;99.90;;;;;;4998418;28;20027;-73
2024/01/27 01:16:07;;;;;;;11.20;1.80;;;5.20;99.90;;;;;;4998097;28;20022;-71
2024/01/27 01:18:33;;;;;;;12.45;2.35;;;5.30;99.90;;;;;;4998524;28;20031;-73
2024/01/27 01:20:58;;;;;;;11.98;2.47;;;5.30;99.90;;;;;;4997757;28;20030;-72
2024/01/27 01:23:24;;;;;;;10.40;1.90;;;5.20;99.90;;;;;;4997570;28;20061;-73
2024/01/27 01:25:50;;;;;;;11.07;2.28;;;5.20;99.90;;;;;;4997769;28;20061;-73
2024/01/27 01:28:15;;;;;;;8.15;1.80;;;5.20;99.90;;;;;;5013234;28;20026;-73
2024/01/27 01:30:41;;;;;;;9.02;1.90;;;5.20;99.90;;;;;;5013358;28;20026;-72
2024/01/27 01:33:06;;;;;;;14.68;2.20;;;5.20;99.90;;;;;;4996965;28;20027;-73
2024/01/27 01:35:32;;;;;;;9.45;3.22;;;5.30;99.90;;;;;;5013338;28;20069;-73
2024/01/27 01:37:57;;;;;;;9.95;2.08;;;5.30;99.90;;;;;;5013307;28;20027;-73
2024/01/27 01:40:23;;;;;;;9.52;2.20;;;5.30;99.90;;;;;;5013261;28;20022;-73
2024/01/27 01:42:52;;;;;;;7.15;2.20;;;5.30;99.90;;;;;;5013213;28;20072;-74
2024/01/27 01:45:17;;;;;;;11.68;1.90;;;5.30;99.90;;;;;;4996764;28;20022;-73
2024/01/27 01:47:43;;;;;;;13.05;2.42;;;5.30;99.90;;;;;;4997790;28;20033;-73
2024/01/27 01:50:10;;;;;;;11.20;2.38;;;5.30;99.90;;;;;;4997587;28;20134;-73
2024/01/27 01:52:36;;;;;;;14.70;1.98;;;5.30;99.90;;;;;;4996753;28;20050;-73
2024/01/27 01:55:02;;;;;;;6.40;1.90;;;5.20;99.90;;;;;;4997553;28;20109;-73
2024/01/27 01:57:38;;;;;;;9.40;2.17;;;5.20;99.90;;;;;;4998643;28;20077;-74
2024/01/27 02:00:04;;;;;;;14.77;2.55;;;5.20;99.90;;;;;;4999680;28;20022;-73
2024/01/27 02:02:30;;;;;;;7.90;2.17;;;5.20;99.90;;;;;;4996468;28;20030;-73
2024/01/27 02:04:55;;;;;;;9.98;2.17;;;5.20;99.90;;;;;;5013483;28;20126;-72
2024/01/27 02:07:21;;;;;;;12.98;2.63;;;5.10;99.90;;;;;;5013192;28;20026;-72
2024/01/27 02:09:46;;;;;;;13.75;2.83;;;5.00;99.90;;;;;;5013122;28;20023;-73
2024/01/27 02:12:12;;;;;;;12.35;2.08;;;5.00;99.90;;;;;;5012804;28;20023;-72
2024/01/27 02:14:37;;;;;;;11.30;2.17;;;5.00;99.90;;;;;;5013185;28;20033;-73
2024/01/27 02:17:04;;;;;;;10.52;2.65;;;5.00;99.90;;;;;;5013783;28;20060;-73
2024/01/27 02:19:30;;;;;;;10.93;2.95;;;5.00;99.90;;;;;;5017209;28;20038;-71
2024/01/27 02:21:55;;;;;;;7.05;1.75;;;5.00;99.90;;;;;;5017063;28;20027;-73
2024/01/27 02:24:21;;;;;;;8.68;1.90;;;5.00;99.90;;;;;;5017542;28;20033;-73
2024/01/27 02:26:46;;;;;;;12.30;2.97;;;4.90;99.90;;;;;;5016939;28;20034;-72
2024/01/27 02:29:12;;;;;;;9.93;2.10;;;4.90;99.90;;;;;;5016822;28;20029;-73
2024/01/27 02:31:37;;;;;;;19.90;2.22;;;4.80;99.90;;;;;;5016902;28;20026;-73
2024/01/27 02:34:03;;;;;;;6.10;2.38;;;4.90;99.90;;;;;;5016799;28;20018;-73
2024/01/27 02:36:29;;;;;;;10.25;1.98;;;5.00;99.90;;;;;;5018171;28;20105;-73
2024/01/27 02:38:54;;;;;;;11.63;2.08;;;4.90;99.90;;;;;;5016514;28;20169;-73
2024/01/27 02:41:20;;;;;;;9.18;2.13;;;4.80;99.90;;;;;;5016726;28;20073;-74
2024/01/27 02:43:45;;;;;;;5.70;2.13;;;4.70;99.90;;;;;;5016733;28;20018;-72
2024/01/27 02:46:12;;;;;;;11.07;2.63;;;4.70;99.90;;;;;;5017142;28;20025;-73
2024/01/27 02:48:44;;;;;;;19.05;3.08;;;4.70;99.90;;;;;;5016538;28;20026;-73
2024/01/27 02:51:10;;;;;;;16.95;2.72;;;4.70;99.90;;;;;;5016675;28;20023;-73
2024/01/27 02:53:36;;;;;;;10.73;2.33;;;4.60;99.90;;;;;;5016272;28;20059;-73
2024/01/27 02:56:01;;;;;;;10.48;2.28;;;4.60;99.90;;;;;;5016424;28;20026;-73
2024/01/27 02:58:27;;;;;;;9.77;2.25;;;4.50;99.90;;;;;;5016760;28;20025;-73
2024/01/27 03:00:53;;;;;;;13.02;2.15;;;4.50;99.90;;;;;;5015831;28;20086;-73
2024/01/27 03:03:18;;;;;;;10.93;2.45;;;4.40;99.90;;;;;;5016675;28;20034;-73
2024/01/27 03:05:44;;;;;;;16.63;2.72;;;4.50;99.90;;;;;;5016273;28;20022;-73
2024/01/27 03:08:10;;;;;;;14.55;2.83;;;4.40;99.90;;;;;;5016366;28;20033;-73
2024/01/27 03:10:35;;;;;;;10.07;2.28;;;4.40;99.90;;;;;;5016284;28;20084;-73
2024/01/27 03:13:01;;;;;;;6.25;2.15;;;4.40;99.90;;;;;;5015661;28;20023;-73
2024/01/27 03:15:26;;;;;;;10.63;2.03;;;4.30;99.90;;;;;;5015966;28;20023;-73
2024/01/27 03:17:52;;;;;;;17.35;4.28;;;4.30;99.90;;;;;;5015640;28;20081;-73
2024/01/27 03:20:18;;;;;;;12.60;2.38;;;4.40;99.90;;;;;;5016673;28;20041;-72
2024/01/27 03:22:46;;;;;;;11.23;2.78;;;4.60;99.90;;;;;;5015922;28;20023;-73
2024/01/27 03:25:11;;;;;;;13.50;1.92;;;4.50;99.90;;;;;;4999905;28;20018;-73
2024/01/27 03:27:37;;;;;;;8.98;1.80;;;4.60;99.90;;;;;;5015310;28;20037;-73
2024/01/27 03:30:03;;;;;;;13.15;2.33;;;4.60;99.90;;;;;;5014949;28;20168;-72
2024/01/27 03:32:31;;;;;;;8.73;2.00;;;4.50;99.90;;;;;;4999096;28;20068;-71
2024/01/27 03:34:59;;;;;;;14.98;2.10;;;4.50;99.90;;;;;;4999480;28;20018;-72
2024/01/27 03:37:24;;;;;;;10.13;2.30;;;4.40;99.90;;;;;;5015780;28;20022;-72
2024/01/27 03:39:50;;;;;;;15.63;2.42;;;4.40;99.90;;;;;;5015782;28;20033;-72
2024/01/27 03:42:15;;;;;;;26.08;2.45;;;4.20;99.90;;;;;;5015668;28;20022;-73
2024/01/27 03:44:41;;;;;;;10.40;2.45;;;4.20;99.90;;;;;;5016361;28;20018;-73
2024/01/27 03:47:06;;;;;;;8.65;1.83;;;4.20;99.90;;;;;;5015520;28;20026;-73
2024/01/27 03:49:32;;;;;;;9.07;1.95;;;3.80;99.90;;;;;;5015425;28;20033;-73
2024/01/27 03:51:57;;;;;;;6.78;1.88;;;3.60;99.90;;;;;;5014870;28;20018;-73
2024/01/27 03:54:23;;;;;;;12.88;2.83;;;3.50;99.90;;;;;;5015828;28;20018;-72
2024/01/27 03:56:49;;;;;;;8.82;2.17;;;3.50;99.90;;;;;;5015358;28;20049;-72
2024/01/27 03:59:14;;;;;;;19.17;2.25;;;3.40;99.90;;;;;;5015449;28;20027;-72
2024/01/27 04:01:40;;;;;;;14.23;3.42;;;3.40;99.90;;;;;;5014952;28;20164;-72
2024/01/27 04:04:05;;;;;;;6.63;1.63;;;3.40;99.90;;;;;;5015482;28;20057;-72
2024/01/27 04:06:39;;;;;;;11.02;2.78;;;3.60;99.90;;;;;;5015713;28;20014;-72
2024/01/27 04:09:08;;;;;;;14.30;2.20;;;3.90;99.90;;;;;;5014976;28;20065;-72
2024/01/27 04:11:34;;;;;;;9.80;2.45;;;4.10;99.90;;;;;;5015205;28;20045;-72
2024/01/27 04:14:01;;;;;;;7.45;1.85;;;4.00;99.90;;;;;;5015745;28;20019;-72
2024/01/27 04:16:27;;;;;;;9.32;1.80;;;3.90;99.90;;;;;;5015137;28;20053;-72
2024/01/27 04:18:52;;;;;;;4.28;1.85;;;3.50;99.90;;;;;;5015084;28;20031;-72
2024/01/27 04:21:18;;;;;;;10.60;1.98;;;3.20;99.90;;;;;;5014773;28;20014;-72
2024/01/27 04:23:43;;;;;;;8.85;2.42;;;3.10;99.90;;;;;;5015305;28;20030;-72
2024/01/27 04:26:10;;;;;;;9.82;2.10;;;2.90;99.90;;;;;;5014954;28;20072;-73
2024/01/27 04:28:36;;;;;;;7.00;1.65;;;2.90;99.90;;;;;;5014516;28;20030;-73
2024/01/27 04:31:02;;;;;;;5.63;1.85;;;2.90;99.90;;;;;;5015338;28;20026;-72
2024/01/27 04:33:27;;;;;;;22.17;2.78;;;2.90;99.90;;;;;;5014973;28;20033;-73
2024/01/27 04:35:53;;;;;;;7.70;2.15;;;2.90;99.90;;;;;;5015343;28;20027;-72
2024/01/27 04:38:19;;;;;;;10.82;2.00;;;2.80;99.90;;;;;;5014798;28;20113;-73
2024/01/27 04:40:45;;;;;;;8.50;2.03;;;2.80;99.90;;;;;;5014439;28;20045;-73
2024/01/27 04:43:14;;;;;;;8.70;1.58;;;2.60;99.90;;;;;;5014309;28;20022;-73
2024/01/27 04:45:40;;;;;;;7.35;2.08;;;2.60;99.90;;;;;;5014472;28;20026;-73
2024/01/27 04:48:05;;;;;;;15.75;2.95;;;2.60;99.90;;;;;;5013946;28;20057;-73
2024/01/27 04:50:31;;;;;;;11.30;2.15;;;2.60;99.90;;;;;;5014158;28;20034;-73
2024/01/27 04:52:56;;;;;;;8.70;2.20;;;2.60;99.90;;;;;;5014304;28;20054;-73
2024/01/27 04:55:22;;;;;;;9.63;2.22;;;2.80;99.90;;;;;;5013913;28;20025;-73
2024/01/27 04:57:47;;;;;;;8.07;1.92;;;2.70;99.90;;;;;;5014038;28;20037;-73
2024/01/27 05:00:14;;;;;;;9.40;2.03;;;2.60;99.90;;;;;;5014653;28;20117;-71
2024/01/27 05:02:40;;;;;;;10.43;2.45;;;2.60;99.90;;;;;;4997467;28;20098;-73
2024/01/27 05:05:07;;;;;;;11.10;2.08;;;2.60;99.90;;;;;;5013829;28;20030;-72
2024/01/27 05:07:32;;;;;;;6.80;2.30;;;2.60;99.90;;;;;;5014039;28;20026;-72
2024/01/27 05:09:58;;;;;;;13.10;2.25;;;2.60;99.90;;;;;;5013639;28;20181;-72
2024/01/27 05:12:23;;;;;;;8.63;2.65;;;2.70;99.90;;;;;;5013519;28;20027;-72
2024/01/27 05:14:49;;;;;;;10.52;1.65;;;2.70;99.90;;;;;;4997577;28;20053;-73
2024/01/27 05:17:15;;;;;;;15.18;2.75;;;2.70;99.90;;;;;;5013554;28;20027;-73
2024/01/27 05:19:40;;;;;;;18.92;2.33;;;2.70;99.90;;;;;;5014159;28;20022;-73
2024/01/27 05:22:06;;;;;;;6.22;2.10;;;2.70;99.90;;;;;;5013463;28;20030;-73
2024/01/27 05:24:31;;;;;;;8.25;2.08;;;2.40;99.90;;;;;;5013787;28;20029;-73
2024/01/27 05:26:57;;;;;;;9.30;2.88;;;2.30;99.90;;;;;;5013565;28;20085;-73
2024/01/27 05:29:22;;;;;;;14.57;2.03;;;2.30;99.90;;;;;;5013472;28;20026;-73
2024/01/27 05:31:48;;;;;;;9.15;1.85;;;2.20;99.90;;;;;;5013777;28;20023;-73
2024/01/27 05:34:14;;;;;;;11.30;2.97;;;2.20;99.90;;;;;;5013550;28;20019;-73
2024/01/27 05:36:40;;;;;;;9.40;2.42;;;2.10;99.90;;;;;;5013342;28;20033;-73
2024/01/27 05:39:06;;;;;;;9.93;1.58;;;2.10;99.90;;;;;;5013574;28;20023;-72
2024/01/27 05:41:35;;;;;;;9.40;2.92;;;2.20;99.90;;;;;;5013486;28;20023;-73
2024/01/27 05:44:01;;;;;;;11.40;2.70;;;2.20;99.90;;;;;;5013248;28;20058;-72
2024/01/27 05:46:26;;;;;;;11.35;2.60;;;2.30;99.90;;;;;;5013453;28;20060;-72
2024/01/27 05:48:57;;;;;;;12.05;2.13;;;2.40;99.90;;;;;;5013369;28;20027;-73
2024/01/27 05:51:23;;;;;;;5.77;2.17;;;2.40;99.90;;;;;;5012690;28;20026;-72
2024/01/27 05:53:49;;;;;;;8.50;2.85;;;2.40;99.90;;;;;;5013345;28;20018;-72
2024/01/27 05:56:17;;;;;;;3.78;2.05;;;2.30;99.90;;;;;;5013310;28;20018;-72
2024/01/27 05:58:42;;;;;;;13.90;2.50;;;2.30;99.90;;;;;;5013224;28;20027;-72
2024/01/27 06:01:09;;;;;;;9.43;2.47;;;2.30;99.90;;;;;;5013683;28;20030;-72
2024/01/27 06:03:35;;;;;;;11.60;2.50;;;2.20;99.90;;;;;;5013413;28;20117;-72
2024/01/27 06:06:01;;;;;;;8.70;2.63;;;2.10;99.90;;;;;;5013320;28;20037;-72
2024/01/27 06:08:26;;;;;;;10.77;2.55;;;2.10;99.90;;;;;;5013263;28;20026;-72
2024/01/27 06:10:52;;;;;;;8.13;1.83;;;2.00;99.90;;;;;;5013259;28;20062;-72
2024/01/27 06:13:18;;;;;;;7.45;2.05;;;2.10;99.90;;;;;;5013075;28;20054;-72
2024/01/27 06:15:43;;;;;;;9.13;2.00;;;2.20;99.90;;;;;;5013145;28;20030;-73
2024/01/27 06:18:09;;;;;;;7.88;2.13;;;2.20;99.90;;;;;;5012690;28;20034;-67
2024/01/27 06:20:34;;;;;;;11.77;2.25;;;2.10;99.90;;;;;;5013165;28;20037;-67
2024/01/27 06:23:00;;;;;;;5.30;1.80;;;2.00;99.90;;;;;;5013054;28;20026;-67
2024/01/27 06:25:25;;;;;;;14.13;2.13;;;1.90;99.90;;;;;;5012968;28;20069;-67
2024/01/27 06:27:51;;;;;;;5.05;2.05;;;1.80;99.90;;;;;;5012778;28;20034;-67
2024/01/27 06:30:18;;;;;;;11.90;2.33;;;1.90;99.90;;;;;;5012575;28;20030;-67
2024/01/27 06:32:43;;;;;;;12.52;2.55;;;1.90;99.90;;;;;;5013850;28;20045;-66
2024/01/27 06:35:09;;;;;;;12.68;2.63;;;1.80;99.90;;;;;;5012727;28;20029;-66
2024/01/27 06:37:35;;;;;;;13.75;2.28;;;1.70;99.90;;;;;;5013561;28;20026;-66
2024/01/27 06:40:00;;;;;;;11.50;2.20;;;2.00;99.90;;;;;;5012887;28;20022;-66
2024/01/27 06:42:26;;;;;;;10.05;2.35;;;2.30;99.90;;;;;;5013167;28;20027;-68
2024/01/27 06:44:51;;;;;;;6.85;2.15;;;2.30;99.90;;;;;;5013003;28;20023;-67
2024/01/27 06:47:17;;;;;;;7.18;2.05;;;2.30;99.90;;;;;;5012491;28;20062;-67
2024/01/27 06:49:43;;;;;;;12.52;2.60;;;2.10;99.90;;;;;;5012677;28;20030;-67
2024/01/27 06:52:08;;;;;;;17.00;2.13;;;2.10;99.90;;;;;;5012455;28;20081;-67
2024/01/27 06:54:34;;;;;;;6.93;3.00;;;2.10;99.90;;;;;;5012843;28;20030;-67
2024/01/27 06:57:00;;;;;;;13.15;2.25;;;1.90;99.90;;;;;;5012618;28;20022;-67
2024/01/27 06:59:26;;;;;;;11.00;2.58;;;1.90;99.90;;;;;;5012812;28;20054;-67
2024/01/27 07:01:51;;;;;;;9.95;2.63;;;1.80;99.90;;;;;;5012316;28;20084;-67
2024/01/27 07:04:17;;;;;;;8.60;2.22;;;1.80;99.90;;;;;;5014020;28;20022;-67
2024/01/27 07:06:44;;;;;;;6.45;1.77;;;1.90;99.90;;;;;;5016783;28;20037;-67
2024/01/27 07:09:10;;;;;;;9.13;2.33;;;1.80;99.90;;;;;;5016162;28;20121;-67
2024/01/27 07:11:36;;;;;;;6.15;2.10;;;1.80;99.90;;;;;;5016119;28;20085;-67
2024/01/27 07:14:06;;;;;;;7.88;2.20;;;1.80;99.90;;;;;;5016201;28;20026;-67
2024/01/27 07:16:33;;;;;;;6.95;2.15;;;1.80;99.90;;;;;;5015647;28;20113;-67
2024/01/27 07:18:59;;;;;;;9.32;2.05;;;1.70;99.90;;;;;;5015707;28;20062;-67
2024/01/27 07:21:26;;;;;;;10.45;2.10;;;1.80;99.90;;;;;;5015989;28;20026;-67
2024/01/27 07:23:52;;;;;;;8.60;2.45;;;1.80;99.90;;;;;;5016075;28;20037;-67
2024/01/27 07:26:18;;;;;;;12.63;2.40;;;2.00;99.90;;;;;;5015975;28;20026;-67
2024/01/27 07:28:44;;;;;;;6.15;1.92;;;2.00;99.90;;;;;;5016206;28;20026;-67
2024/01/27 07:31:10;;;;;;;14.55;2.65;;;2.00;99.90;;;;;;5015608;28;20033;-67
2024/01/27 07:33:37;;;;;;;13.73;2.45;;;2.10;99.90;;;;;;5015552;28;20125;-67
2024/01/27 07:36:03;;;;;;;9.48;2.85;;;2.00;99.90;;;;;;5016357;28;20050;-66
2024/01/27 07:38:28;;;;;;;11.88;3.42;;;2.00;99.90;;;;;;5015654;28;20029;-66
2024/01/27 07:40:54;;;;;;;7.50;2.60;;;1.90;99.90;;;;;;5015688;28;20106;-66
2024/01/27 07:43:20;;;;;;;18.67;3.22;;;2.00;99.90;;;;;;5015850;28;20076;-66
2024/01/27 07:45:46;;;;;;;9.68;2.60;;;2.00;99.90;;;;;;5015514;28;20032;-66
2024/01/27 07:48:12;;;;;;;9.52;2.40;;;2.10;99.90;;;;;;5015661;28;20052;-66
2024/01/27 07:50:37;;;;;;;11.02;2.58;;;2.20;99.90;;;;;;5015721;28;20027;-66
2024/01/27 07:53:03;;;;;;;13.15;3.30;;;2.20;99.90;;;;;;5015294;28;20037;-66
2024/01/27 07:55:29;;;;;;;12.85;2.92;;;2.20;99.90;;;;;;5015864;28;20034;-67
2024/01/27 07:57:54;;;;;;;9.27;3.00;;;2.20;99.90;;;;;;5014970;28;20033;-67
2024/01/27 08:00:20;;;;;;;11.20;3.00;;;2.10;99.90;;;;;;5015832;28;20109;-67
2024/01/27 08:02:45;;;;;;;17.05;3.22;;;2.10;99.90;;;;;;5015681;28;20026;-67
2024/01/27 08:05:11;;;;;;;11.70;2.80;;;2.20;99.90;;;;;;5014898;28;20085;-67
2024/01/27 08:07:37;;;;;;;24.98;3.03;;;2.00;99.90;;;;;;5015027;28;20040;-67
2024/01/27 08:10:04;;;;;;;9.50;3.78;;;2.10;99.90;;;;;;5015282;28;20110;-66
2024/01/27 08:12:30;;;;;;;20.10;2.80;;;1.90;99.90;;;;;;5015508;28;20029;-67
2024/01/27 08:14:55;;;;;;;9.80;3.03;;;1.90;99.90;;;;;;5015096;28;20022;-67
2024/01/27 08:17:21;;;;;;;8.20;2.40;;;2.00;99.90;;;;;;5014609;28;20037;-67
2024/01/27 08:19:47;;;;;;;9.70;3.08;;;1.90;99.90;;;;;;5014684;28;20026;-67
2024/01/27 08:22:13;;;;;;;14.35;2.75;;;1.80;99.90;;;;;;5014951;28;20057;-67
2024/01/27 08:24:38;;;;;;;15.73;4.03;;;1.90;99.90;;;;;;5014773;28;20066;-66
2024/01/27 08:27:05;;;;;;;10.57;3.35;;;2.00;99.90;;;;;;5014813;28;20026;-66
2024/01/27 08:29:30;;;;;;;14.43;2.85;;;2.00;99.90;;;;;;5014586;28;20026;-68
2024/01/27 08:31:56;;;;;;;6.63;3.10;;;2.10;99.90;;;;;;5014993;28;20053;-66
2024/01/27 08:34:22;;;;;;;12.85;3.25;;;2.30;99.90;;;;;;5014576;28;20022;-66
2024/01/27 08:36:47;;;;;;;11.25;3.28;;;2.30;99.90;;;;;;5014626;28;20022;-66
2024/01/27 08:39:13;;;;;;;6.78;2.95;;;2.40;99.90;;;;;;5014729;28;20014;-66
2024/01/27 08:41:39;;;;;;;6.80;2.60;;;2.50;99.90;;;;;;5014612;28;20054;-66
2024/01/27 08:44:05;;;;;;;18.02;4.30;;;2.70;99.90;;;;;;5014546;28;20027;-66
2024/01/27 08:46:30;;;;;;;8.80;2.95;;;2.70;99.90;;;;;;5014137;28;20026;-66
2024/01/27 08:48:56;;;;;;;15.60;3.33;;;2.60;99.90;;;;;;5014445;28;20022;-66
2024/01/27 08:51:21;;;;;;;8.45;3.03;;;2.80;99.90;;;;;;5014279;28;20058;-66
2024/01/27 08:53:50;;;;;;;12.82;3.70;;;2.70;99.90;;;;;;5014011;28;20026;-67
2024/01/27 08:56:17;;;;;;;13.93;3.28;;;2.70;99.90;;;;;;5014503;28;20113;-67
2024/01/27 08:58:43;;;;;;;11.30;2.97;;;2.70;99.90;;;;;;5013923;28;20029;-67
2024/01/27 09:01:12;;;;;;;8.27;3.03;;;2.90;99.90;;;;;;5014783;28;20052;-66
2024/01/27 09:03:39;;;;;;;17.70;3.88;;;3.10;99.90;;;;;;5014416;28;20076;-66
2024/01/27 09:06:04;;;;;;;17.45;4.13;;;3.10;99.90;;;;;;5014618;28;20022;-67
2024/01/27 09:08:30;;;;;;;15.23;3.92;;;3.40;99.90;;;;;;5014081;28;20049;-67
2024/01/27 09:10:55;;;;;;;7.78;2.45;;;3.50;99.90;;;;;;5013846;28;20033;-66
2024/01/27 09:13:21;;;;;;;7.80;2.38;;;3.60;99.90;;;;;;5013881;28;20129;-66
2024/01/27 09:15:48;;;;;;;9.68;2.05;;;3.60;99.90;;;;;;5014758;28;20058;-66
2024/01/27 09:18:14;;;;;;;10.32;2.55;;;3.70;99.90;;;;;;5013720;28;20030;-66
2024/01/27 09:20:40;;;;;;;12.68;3.10;;;3.80;99.90;;;;;;5014041;28;20054;-66
2024/01/27 09:23:06;;;;;;;14.75;2.83;;;3.90;99.90;;;;;;5014477;28;20026;-67
2024/01/27 09:25:31;;;;;;;12.40;3.00;;;3.80;99.90;;;;;;5014103;28;20030;-67
2024/01/27 09:28:00;;;;;;;12.70;2.17;;;3.90;99.90;;;;;;5012925;28;20030;-67
2024/01/27 09:30:26;;;;;;;12.35;2.85;;;4.10;99.90;;;;;;5013694;28;20022;-66
2024/01/27 09:32:52;;;;;;;17.00;2.75;;;4.30;99.90;;;;;;5013463;28;20030;-66
2024/01/27 09:35:17;;;;;;;12.18;2.30;;;4.50;99.90;;;;;;5013926;28;20022;-66
2024/01/27 09:37:45;;;;;;;15.77;2.90;;;4.70;99.90;;;;;;5013827;28;20054;-66
2024/01/27 09:40:11;;;;;;;8.25;2.22;;;4.70;99.90;;;;;;5013761;28;20019;-67
2024/01/27 09:42:41;;;;;;;16.52;2.50;;;4.80;99.90;;;;;;5013578;28;20033;-67
2024/01/27 09:45:09;;;;;;;12.05;2.53;;;4.90;99.90;;;;;;5013321;28;20030;-66
2024/01/27 09:47:36;;;;;;;11.52;2.63;;;4.90;99.90;;;;;;5013414;28;20034;-66
2024/01/27 09:50:02;;;;;;;20.40;2.97;;;4.90;99.90;;;;;;5013341;28;20130;-66
2024/01/27 09:52:28;;;;;;;13.15;2.00;;;4.90;99.90;;;;;;5013553;28;20046;-65
2024/01/27 09:54:53;;;;;;;9.63;1.90;;;5.00;99.90;;;;;;5013227;28;20054;-66
2024/01/27 09:57:20;;;;;;;15.50;2.70;;;5.30;99.90;;;;;;5013000;28;20076;-66
2024/01/27 09:59:49;;;;;;;11.73;2.58;;;5.40;99.90;;;;;;5013516;28;20040;-66
2024/01/27 10:02:17;;;;;;;9.88;3.10;;;5.60;99.90;;;;;;5013138;28;20026;-66
2024/01/27 10:04:45;;;;;;;11.50;2.67;;;5.90;99.90;;;;;;5013356;28;20026;-66
2024/01/27 10:07:10;;;;;;;10.70;2.63;;;6.00;99.90;;;;;;5012994;28;20034;-66
2024/01/27 10:09:36;;;;;;;16.67;2.70;;;6.20;99.90;;;;;;5013015;28;20026;-66
2024/01/27 10:12:02;;;;;;;11.52;2.78;;;6.20;99.90;;;;;;5013105;28;20094;-66
2024/01/27 10:14:41;;;;;;;10.23;2.00;;;6.30;99.90;;;;;;5013450;28;20026;-65
2024/01/27 10:17:11;;;;;;;10.48;2.85;;;6.40;99.90;;;;;;4997026;28;20022;-65
2024/01/27 10:19:37;;;;;;;10.18;2.08;;;6.40;99.90;;;;;;5013748;28;20026;-65
2024/01/27 10:22:03;;;;;;;11.18;2.83;;;6.40;99.90;;;;;;5013179;28;20026;-65
2024/01/27 10:24:30;;;;;;;12.45;2.63;;;6.50;99.90;;;;;;5013349;28;20034;-66
2024/01/27 10:27:03;;;;;;;14.60;2.78;;;6.70;99.90;;;;;;5013016;28;20113;-65
2024/01/27 10:29:31;;;;;;;12.38;2.30;;;6.70;99.90;;;;;;5012769;28;20022;-65
2024/01/27 10:32:08;;;;;;;11.70;2.20;;;6.80;99.90;;;;;;4996302;28;20022;-65
2024/01/27 10:34:34;;;;;;;6.13;2.17;;;6.80;99.90;;;;;;5012697;28;20033;-65
2024/01/27 10:36:59;;;;;;;10.98;3.00;;;7.00;99.90;;;;;;5013470;28;20027;-65
2024/01/27 10:39:25;;;;;;;22.52;3.05;;;7.10;99.90;;;;;;5015908;28;20025;-66
2024/01/27 10:41:51;;;;;;;9.38;2.50;;;7.20;99.90;;;;;;5017005;28;20058;-66
2024/01/27 10:44:18;;;;;;;9.55;3.58;;;7.30;99.90;;;;;;5016831;28;20022;-66
2024/01/27 10:46:47;;;;;;;12.15;2.78;;;7.40;99.90;;;;;;5017179;28;20045;-66
2024/01/27 10:49:15;;;;;;;7.70;2.15;;;7.60;99.90;;;;;;5016424;28;20073;-66
2024/01/27 10:52:04;;;;;;;14.82;3.17;;;7.60;99.90;;;;;;5017113;28;20026;-66
2024/01/27 10:54:32;;;;;;;8.65;2.88;;;7.60;99.90;;;;;;5000467;28;20029;-66
2024/01/27 10:56:58;;;;;;;17.60;2.95;;;7.70;99.90;;;;;;5016169;28;20022;-66
2024/01/27 10:59:26;;;;;;;12.00;2.92;;;7.60;99.90;;;;;;5016513;28;20030;-66
2024/01/27 11:01:53;;;;;;;6.57;2.55;;;7.80;99.90;;;;;;5016602;28;20023;-66
2024/01/27 11:04:22;;;;;;;12.23;2.15;;;8.10;99.90;;;;;;5016645;28;20022;-66
2024/01/27 11:06:48;;;;;;;11.63;2.10;;;8.00;99.90;;;;;;5015886;28;20030;-66
2024/01/27 11:09:14;;;;;;;6.07;2.05;;;8.20;99.90;;;;;;5016431;28;20081;-66
2024/01/27 11:11:45;;;;;;;14.30;3.10;;;8.30;99.90;;;;;;4999809;28;20019;-66
2024/01/27 11:14:11;;;;;;;18.33;3.15;;;8.30;99.90;;;;;;4999695;28;20022;-66
2024/01/27 11:16:43;;;;;;;20.75;3.65;;;8.10;99.90;;;;;;5016246;28;20118;-66
2024/01/27 11:19:10;;;;;;;21.63;2.92;;;8.40;99.90;;;;;;5016219;28;20037;-66
2024/01/27 11:21:36;;;;;;;12.30;3.20;;;8.60;99.90;;;;;;5016173;28;20029;-66
2024/01/27 11:24:11;;;;;;;11.85;2.38;;;8.70;99.90;;;;;;5016493;28;20120;-66
2024/01/27 11:26:37;;;;;;;12.88;2.13;;;8.90;99.90;;;;;;4999412;28;20095;-66
2024/01/27 11:29:07;;;;;;;10.00;2.50;;;9.20;99.90;;;;;;5015672;28;20050;-66
2024/01/27 11:31:32;;;;;;;14.30;2.30;;;9.30;99.90;;;;;;5015643;28;20081;-66
2024/01/27 11:33:58;;;;;;;14.85;2.13;;;9.40;99.90;;;;;;5015836;28;20022;-66
2024/01/27 11:36:24;;;;;;;9.65;2.38;;;9.50;99.90;;;;;;5015389;28;20025;-66
2024/01/27 11:38:51;;;;;;;10.80;2.33;;;9.40;99.90;;;;;;5015781;28;20121;-66
2024/01/27 11:41:30;;;;;;;13.07;1.90;;;9.50;99.90;;;;;;5015546;28;20090;-66
2024/01/27 11:43:57;;;;;;;15.90;1.85;;;9.70;99.90;;;;;;5015340;28;20060;-66
2024/01/27 11:46:23;;;;;;;11.50;2.53;;;9.90;99.90;;;;;;5016081;28;20037;-66
2024/01/27 11:48:49;;;;;;;11.30;2.08;;;10.00;99.90;;;;;;5015990;28;20042;-66
2024/01/27 11:51:15;;;;;;;6.30;2.38;;;10.20;99.90;;;;;;5014439;28;20030;-66
2024/01/27 11:53:41;;;;;;;6.30;2.50;;;10.20;99.90;;;;;;4999570;28;20118;-66
2024/01/27 11:56:07;;;;;;;16.65;5.05;;;10.30;99.90;;;;;;5015385;28;20023;-66
2024/01/27 11:58:33;;;;;;;9.43;2.05;;;10.30;99.90;;;;;;5015355;28;20026;-66
2024/01/27 12:00:59;;;;;;;10.93;1.85;;;10.40;99.90;;;;;;5015588;28;20073;-66
2024/01/27 12:03:28;;;;;;;17.67;2.47;;;10.60;99.90;;;;;;5015435;28;20026;-66
2024/01/27 12:05:54;;;;;;;11.57;2.50;;;10.80;99.90;;;;;;5015786;28;20030;-66
2024/01/27 12:08:20;;;;;;;11.30;2.50;;;10.90;99.90;;;;;;5014882;28;20121;-66
2024/01/27 12:10:45;;;;;;;14.25;2.92;;;10.70;99.90;;;;;;5015328;28;20122;-63
2024/01/27 12:13:11;;;;;;;10.73;2.63;;;10.70;99.90;;;;;;5015711;28;20102;-63
2024/01/27 12:15:37;;;;;;;13.73;2.30;;;10.90;99.90;;;;;;5014735;28;20032;-63
2024/01/27 12:18:04;;;;;;;8.40;2.22;;;11.00;99.90;;;;;;5014832;28;20129;-64
2024/01/27 12:20:30;;;;;;;9.07;2.03;;;11.10;99.90;;;;;;5015057;28;20034;-64
2024/01/27 12:23:06;;;;;;;9.95;2.25;;;10.70;99.90;;;;;;5015066;28;20138;-64
2024/01/27 12:25:32;;;;;;;9.30;3.00;;;10.90;99.90;;;;;;4998798;28;20022;-64
2024/01/27 12:28:07;;;;;;;13.27;2.55;;;11.30;99.90;;;;;;5015013;28;20036;-64
2024/01/27 12:30:33;;;;;;;12.75;2.40;;;11.60;99.90;;;;;;5015321;28;20041;-63
2024/01/27 12:32:59;;;;;;;15.38;3.08;;;11.60;99.90;;;;;;5014457;28;20030;-63
2024/01/27 12:35:27;;;;;;;8.13;1.52;;;11.70;99.90;;;;;;5014942;28;20023;-64
2024/01/27 12:37:53;;;;;;;12.77;2.45;;;11.80;99.90;;;;;;5014467;28;20177;-63
2024/01/27 12:40:20;;;;;;;14.65;2.85;;;11.60;99.90;;;;;;5015563;28;20018;-63
2024/01/27 12:42:46;;;;;;;4.78;2.20;;;11.40;99.90;;;;;;5015005;28;20073;-63
2024/01/27 12:45:12;;;;;;;8.75;1.75;;;11.60;99.90;;;;;;5014703;28;20026;-63